Airfield :
LOGIN :

Register | Disclaimer

   EN    FR    IT 

 










Legend :    VFR   Marginal VFR   IFR   Intensive IFR   Very Intensive IFR
Visi :
Ceiling :
>= 8 km
>= 3000ft
5 to 8 km
1000 to 3000 ft
1500m to 5 km
500 to 1000 ft
800 to 1500m
200 to 500 ft
< 800m
< 200 ft
Symbols :   Thunderstorms  Fog  Heavy snow  Heavy precipitations  Wind > 20 kt
SIGMETs :     Misc.  Thunderstorms  Icing  Turbulence  Mountain Waves  Volcanic Ashes







- Airport Elevation : 12 ft
- IATA code : NCE
- Download approach charts


LFMN - Nice

CURRENT METAR :
  • 261530Z 27021KT 9999 FEW033 SCT230 21/04 Q1014 TEMPO TSRA

EXPIRED METARs :
  • 261500Z 29011KT 230V350 9999 FEW033TCU SCT230 21/04 Q1014 TEMPO TSRA
  • 261430Z VRB07G18KT 9999 FEW033TCU SCT066 19/05 Q1014 WS ALL RWY TEMPO TSRA
  • 261417Z 10004KT 060V160 9999 FEW033CB SCT066 17/13 Q1014 WS ALL RWY TEMPO TSRA
  • 261400Z 06005KT 9999 FEW033CB SCT066 16/13 Q1014 TEMPO TSRA
  • 261330Z 07011KT 9999 FEW023 FEW040CB SCT066 17/13 Q1013 NOSIG
  • 261300Z 04012KT 010V070 9999 FEW023 SCT050 18/13 Q1013 NOSIG
  • 261230Z 09008KT 020V180 9999 FEW016 FEW040CB 18/13 Q1013 NOSIG

TAF TAF LFMN
Valid from the 26 at 15:00 until the 27 at 21:00 UTC


261400Z 2615/2721 27015KT 9999 FEW040TCU SCT060
PROB40
TEMPO 2615/2616 23020G35KT TSRA FEW040CB
BECMG 2620/2622 34010KT CAVOK
BECMG 2710/2712 10010KT
ATIS : +33 4 93 17 21 16
No reported NOTAMs for that airfield.
2 SIGMETs reported for the Marseille FIR (LFMM) :
 
Severe turbulence
LFMM SIGMET 4 VALID 261400/261800 LFPW
LFMM MARSEILLE FIR/UIR SEV TURB FCST WI N4300 E00945 - N4115 E00945 - N4115 E00915 - N4300 E00845 - N4300 E00945 SFC/FL120 STNR INTSF=
Severe turbulence
LFMM SIGMET 3 VALID 261400/261800 LFPW
LFMM MARSEILLE FIR/UIR SEV TURB FCST WI N4245 E00230 - N4330 E00245 - N4415 E00315 - N4400 E00345 - N4315 E00315 - N4300 E00345 - N4230 E00330 - N4245 E00230 SFC/FL050 STNR INTSF=



MET'MAP, your aeronautical weather chart ! - Copyright ORBIFLY December 2007 - Disclaimer

ORBIFLY MET'MAP TEAM :

Programming & Development : Alexandra Zaïnal
Concept & Development : Baudouin d'Aumeries
Co-Development & Prog : Marc-Olivier Méhu
Technical & hardware support : Manuel Goepfert

Contact : metmap@orbifly.com




SOURCES & CREDITS :

   NOAA